sensor_id;sensor_type;location;lat;lon;timestamp;P1;durP1;ratioP1;P2;durP2;ratioP2
6259;SDS011;3163;51.516;4.000;2023-09-07T00:00:03;2.63;;;2.15;;
6259;SDS011;3163;51.516;4.000;2023-09-07T00:02:30;9.27;;;6.63;;
6259;SDS011;3163;51.516;4.000;2023-09-07T00:04:56;11.57;;;6.35;;
6259;SDS011;3163;51.516;4.000;2023-09-07T00:07:22;5.32;;;2.72;;
6259;SDS011;3163;51.516;4.000;2023-09-07T00:09:48;2.60;;;2.40;;
6259;SDS011;3163;51.516;4.000;2023-09-07T00:12:13;3.67;;;3.38;;
6259;SDS011;3163;51.516;4.000;2023-09-07T00:14:39;3.78;;;3.40;;
6259;SDS011;3163;51.516;4.000;2023-09-07T00:17:05;3.30;;;3.00;;
6259;SDS011;3163;51.516;4.000;2023-09-07T00:19:31;2.58;;;2.38;;
6259;SDS011;3163;51.516;4.000;2023-09-07T00:21:58;3.47;;;3.17;;
6259;SDS011;3163;51.516;4.000;2023-09-07T00:24:24;2.03;;;1.83;;
6259;SDS011;3163;51.516;4.000;2023-09-07T00:26:50;2.65;;;2.20;;
6259;SDS011;3163;51.516;4.000;2023-09-07T00:29:17;3.20;;;2.90;;
6259;SDS011;3163;51.516;4.000;2023-09-07T00:31:42;4.10;;;3.55;;
6259;SDS011;3163;51.516;4.000;2023-09-07T00:34:08;3.00;;;2.80;;
6259;SDS011;3163;51.516;4.000;2023-09-07T00:36:33;4.03;;;3.70;;
6259;SDS011;3163;51.516;4.000;2023-09-07T00:38:59;2.50;;;2.30;;
6259;SDS011;3163;51.516;4.000;2023-09-07T00:41:25;2.40;;;2.25;;
6259;SDS011;3163;51.516;4.000;2023-09-07T00:43:50;2.13;;;1.90;;
6259;SDS011;3163;51.516;4.000;2023-09-07T00:46:16;6.97;;;4.93;;
6259;SDS011;3163;51.516;4.000;2023-09-07T00:48:42;6.40;;;4.97;;
6259;SDS011;3163;51.516;4.000;2023-09-07T00:51:07;2.13;;;2.03;;
6259;SDS011;3163;51.516;4.000;2023-09-07T00:53:33;2.85;;;2.63;;
6259;SDS011;3163;51.516;4.000;2023-09-07T00:55:59;4.25;;;3.85;;
6259;SDS011;3163;51.516;4.000;2023-09-07T00:58:25;5.68;;;3.55;;
6259;SDS011;3163;51.516;4.000;2023-09-07T01:00:51;2.78;;;2.55;;
6259;SDS011;3163;51.516;4.000;2023-09-07T01:03:17;2.78;;;2.05;;
6259;SDS011;3163;51.516;4.000;2023-09-07T01:08:31;3.10;;;2.80;;
6259;SDS011;3163;51.516;4.000;2023-09-07T01:10:59;2.35;;;2.15;;
6259;SDS011;3163;51.516;4.000;2023-09-07T01:13:25;2.03;;;1.83;;
6259;SDS011;3163;51.516;4.000;2023-09-07T01:15:50;2.10;;;1.92;;
6259;SDS011;3163;51.516;4.000;2023-09-07T01:18:17;2.50;;;2.30;;
6259;SDS011;3163;51.516;4.000;2023-09-07T01:20:44;1.90;;;1.80;;
6259;SDS011;3163;51.516;4.000;2023-09-07T01:23:10;2.10;;;2.00;;
6259;SDS011;3163;51.516;4.000;2023-09-07T01:25:37;1.90;;;1.80;;
6259;SDS011;3163;51.516;4.000;2023-09-07T01:28:04;2.42;;;2.22;;
6259;SDS011;3163;51.516;4.000;2023-09-07T01:30:29;2.00;;;1.80;;
6259;SDS011;3163;51.516;4.000;2023-09-07T01:32:55;1.70;;;1.60;;
6259;SDS011;3163;51.516;4.000;2023-09-07T01:35:21;2.55;;;2.33;;
6259;SDS011;3163;51.516;4.000;2023-09-07T01:37:48;3.17;;;2.97;;
6259;SDS011;3163;51.516;4.000;2023-09-07T01:40:13;6.88;;;4.13;;
6259;SDS011;3163;51.516;4.000;2023-09-07T01:42:40;2.88;;;2.67;;
6259;SDS011;3163;51.516;4.000;2023-09-07T01:45:06;5.78;;;5.18;;
6259;SDS011;3163;51.516;4.000;2023-09-07T01:47:32;4.32;;;3.90;;
6259;SDS011;3163;51.516;4.000;2023-09-07T01:49:57;4.90;;;4.40;;
6259;SDS011;3163;51.516;4.000;2023-09-07T01:52:23;2.50;;;2.30;;
6259;SDS011;3163;51.516;4.000;2023-09-07T01:54:48;2.30;;;2.10;;
6259;SDS011;3163;51.516;4.000;2023-09-07T01:57:14;3.75;;;2.65;;
6259;SDS011;3163;51.516;4.000;2023-09-07T01:59:40;3.17;;;2.60;;
6259;SDS011;3163;51.516;4.000;2023-09-07T02:02:05;2.28;;;2.00;;
6259;SDS011;3163;51.516;4.000;2023-09-07T02:04:31;2.22;;;2.05;;
6259;SDS011;3163;51.516;4.000;2023-09-07T02:06:56;3.90;;;2.65;;
6259;SDS011;3163;51.516;4.000;2023-09-07T02:09:22;3.22;;;2.92;;
6259;SDS011;3163;51.516;4.000;2023-09-07T02:11:47;3.97;;;3.58;;
6259;SDS011;3163;51.516;4.000;2023-09-07T02:14:13;1.85;;;1.75;;
6259;SDS011;3163;51.516;4.000;2023-09-07T02:16:39;11.18;;;6.78;;
6259;SDS011;3163;51.516;4.000;2023-09-07T02:19:05;4.95;;;3.90;;
6259;SDS011;3163;51.516;4.000;2023-09-07T02:21:32;2.33;;;2.13;;
6259;SDS011;3163;51.516;4.000;2023-09-07T02:23:57;5.57;;;4.88;;
6259;SDS011;3163;51.516;4.000;2023-09-07T02:26:23;4.70;;;4.00;;
6259;SDS011;3163;51.516;4.000;2023-09-07T02:28:49;5.57;;;4.45;;
6259;SDS011;3163;51.516;4.000;2023-09-07T02:31:15;5.30;;;4.57;;
6259;SDS011;3163;51.516;4.000;2023-09-07T02:33:40;2.97;;;2.78;;
6259;SDS011;3163;51.516;4.000;2023-09-07T02:36:06;7.43;;;6.23;;
6259;SDS011;3163;51.516;4.000;2023-09-07T02:38:31;2.50;;;2.33;;
6259;SDS011;3163;51.516;4.000;2023-09-07T02:40:57;2.88;;;2.65;;
6259;SDS011;3163;51.516;4.000;2023-09-07T02:43:23;4.80;;;3.65;;
6259;SDS011;3163;51.516;4.000;2023-09-07T02:45:49;3.45;;;3.13;;
6259;SDS011;3163;51.516;4.000;2023-09-07T02:48:15;2.95;;;2.75;;
6259;SDS011;3163;51.516;4.000;2023-09-07T02:50:41;2.72;;;2.53;;
6259;SDS011;3163;51.516;4.000;2023-09-07T02:53:07;2.38;;;2.20;;
6259;SDS011;3163;51.516;4.000;2023-09-07T02:55:33;5.30;;;4.65;;
6259;SDS011;3163;51.516;4.000;2023-09-07T02:58:02;2.67;;;2.47;;
6259;SDS011;3163;51.516;4.000;2023-09-07T03:00:28;2.45;;;2.25;;
6259;SDS011;3163;51.516;4.000;2023-09-07T03:02:54;2.55;;;2.35;;
6259;SDS011;3163;51.516;4.000;2023-09-07T03:05:19;2.92;;;2.72;;
6259;SDS011;3163;51.516;4.000;2023-09-07T03:07:46;2.65;;;2.45;;
6259;SDS011;3163;51.516;4.000;2023-09-07T03:10:13;2.38;;;2.15;;
6259;SDS011;3163;51.516;4.000;2023-09-07T03:12:39;3.72;;;3.08;;
6259;SDS011;3163;51.516;4.000;2023-09-07T03:15:06;5.10;;;4.60;;
6259;SDS011;3163;51.516;4.000;2023-09-07T03:17:32;2.50;;;2.30;;
6259;SDS011;3163;51.516;4.000;2023-09-07T03:19:58;2.72;;;2.53;;
6259;SDS011;3163;51.516;4.000;2023-09-07T03:22:24;3.58;;;3.20;;
6259;SDS011;3163;51.516;4.000;2023-09-07T03:24:50;2.05;;;1.95;;
6259;SDS011;3163;51.516;4.000;2023-09-07T03:27:16;2.55;;;2.42;;
6259;SDS011;3163;51.516;4.000;2023-09-07T03:29:43;4.20;;;3.80;;
6259;SDS011;3163;51.516;4.000;2023-09-07T03:32:09;2.60;;;2.40;;
6259;SDS011;3163;51.516;4.000;2023-09-07T03:34:35;3.45;;;3.15;;
6259;SDS011;3163;51.516;4.000;2023-09-07T03:37:01;2.65;;;2.45;;
6259;SDS011;3163;51.516;4.000;2023-09-07T03:39:27;3.15;;;2.60;;
6259;SDS011;3163;51.516;4.000;2023-09-07T03:41:53;5.03;;;3.67;;
6259;SDS011;3163;51.516;4.000;2023-09-07T03:44:19;2.55;;;2.35;;
6259;SDS011;3163;51.516;4.000;2023-09-07T03:46:44;4.78;;;3.53;;
6259;SDS011;3163;51.516;4.000;2023-09-07T03:49:10;2.63;;;2.17;;
6259;SDS011;3163;51.516;4.000;2023-09-07T03:51:35;3.47;;;3.15;;
6259;SDS011;3163;51.516;4.000;2023-09-07T03:54:01;3.67;;;3.38;;
6259;SDS011;3163;51.516;4.000;2023-09-07T03:56:27;2.95;;;2.72;;
6259;SDS011;3163;51.516;4.000;2023-09-07T03:58:52;2.50;;;2.30;;
6259;SDS011;3163;51.516;4.000;2023-09-07T04:01:18;2.35;;;2.25;;
6259;SDS011;3163;51.516;4.000;2023-09-07T04:03:43;2.97;;;2.78;;
6259;SDS011;3163;51.516;4.000;2023-09-07T04:06:09;3.97;;;3.47;;
6259;SDS011;3163;51.516;4.000;2023-09-07T04:08:35;2.72;;;2.53;;
6259;SDS011;3163;51.516;4.000;2023-09-07T04:11:04;2.80;;;2.60;;
6259;SDS011;3163;51.516;4.000;2023-09-07T04:13:30;4.50;;;3.95;;
6259;SDS011;3163;51.516;4.000;2023-09-07T04:15:56;2.30;;;2.17;;
6259;SDS011;3163;51.516;4.000;2023-09-07T04:18:22;2.60;;;1.95;;
6259;SDS011;3163;51.516;4.000;2023-09-07T04:20:47;1.98;;;1.88;;
6259;SDS011;3163;51.516;4.000;2023-09-07T04:23:13;3.17;;;2.88;;
6259;SDS011;3163;51.516;4.000;2023-09-07T04:25:39;3.13;;;2.42;;
6259;SDS011;3163;51.516;4.000;2023-09-07T04:28:05;2.35;;;2.20;;
6259;SDS011;3163;51.516;4.000;2023-09-07T04:30:31;2.70;;;2.50;;
6259;SDS011;3163;51.516;4.000;2023-09-07T04:32:57;2.90;;;2.70;;
6259;SDS011;3163;51.516;4.000;2023-09-07T04:35:28;3.38;;;3.08;;
6259;SDS011;3163;51.516;4.000;2023-09-07T04:37:55;4.32;;;2.53;;
6259;SDS011;3163;51.516;4.000;2023-09-07T04:40:21;7.97;;;4.70;;
6259;SDS011;3163;51.516;4.000;2023-09-07T04:42:47;2.95;;;2.53;;
6259;SDS011;3163;51.516;4.000;2023-09-07T04:45:13;2.60;;;2.40;;
6259;SDS011;3163;51.516;4.000;2023-09-07T04:47:38;2.10;;;1.90;;
6259;SDS011;3163;51.516;4.000;2023-09-07T04:50:04;2.35;;;2.25;;
6259;SDS011;3163;51.516;4.000;2023-09-07T04:52:31;3.33;;;2.33;;
6259;SDS011;3163;51.516;4.000;2023-09-07T04:54:57;3.65;;;2.53;;
6259;SDS011;3163;51.516;4.000;2023-09-07T04:57:22;3.65;;;2.83;;
6259;SDS011;3163;51.516;4.000;2023-09-07T04:59:48;2.38;;;2.17;;
6259;SDS011;3163;51.516;4.000;2023-09-07T05:02:14;3.75;;;2.00;;
6259;SDS011;3163;51.516;4.000;2023-09-07T05:04:39;2.90;;;2.55;;
6259;SDS011;3163;51.516;4.000;2023-09-07T05:07:05;3.60;;;3.08;;
6259;SDS011;3163;51.516;4.000;2023-09-07T05:09:30;2.53;;;2.33;;
6259;SDS011;3163;51.516;4.000;2023-09-07T05:11:56;2.80;;;2.60;;
6259;SDS011;3163;51.516;4.000;2023-09-07T05:14:25;5.30;;;4.15;;
6259;SDS011;3163;51.516;4.000;2023-09-07T05:16:51;10.07;;;6.10;;
6259;SDS011;3163;51.516;4.000;2023-09-07T05:19:17;2.33;;;2.13;;
6259;SDS011;3163;51.516;4.000;2023-09-07T05:21:43;3.10;;;2.03;;
6259;SDS011;3163;51.516;4.000;2023-09-07T05:24:09;2.47;;;2.38;;
6259;SDS011;3163;51.516;4.000;2023-09-07T05:26:34;2.67;;;2.47;;
6259;SDS011;3163;51.516;4.000;2023-09-07T05:29:00;2.90;;;2.10;;
6259;SDS011;3163;51.516;4.000;2023-09-07T05:31:25;2.80;;;2.58;;
6259;SDS011;3163;51.516;4.000;2023-09-07T05:33:51;2.97;;;2.78;;
6259;SDS011;3163;51.516;4.000;2023-09-07T05:36:17;3.22;;;2.97;;
6259;SDS011;3163;51.516;4.000;2023-09-07T05:38:43;2.65;;;2.40;;
6259;SDS011;3163;51.516;4.000;2023-09-07T05:41:09;2.50;;;2.30;;
6259;SDS011;3163;51.516;4.000;2023-09-07T05:43:34;3.45;;;2.65;;
6259;SDS011;3163;51.516;4.000;2023-09-07T05:46:00;2.83;;;2.40;;
6259;SDS011;3163;51.516;4.000;2023-09-07T05:48:26;2.60;;;2.40;;
6259;SDS011;3163;51.516;4.000;2023-09-07T05:50:51;2.80;;;2.60;;
6259;SDS011;3163;51.516;4.000;2023-09-07T05:53:18;3.40;;;3.10;;
6259;SDS011;3163;51.516;4.000;2023-09-07T05:55:45;5.95;;;4.35;;
6259;SDS011;3163;51.516;4.000;2023-09-07T05:58:12;7.88;;;6.80;;
6259;SDS011;3163;51.516;4.000;2023-09-07T06:00:39;8.80;;;6.47;;
6259;SDS011;3163;51.516;4.000;2023-09-07T06:03:06;9.88;;;6.45;;
6259;SDS011;3163;51.516;4.000;2023-09-07T06:05:36;8.68;;;6.00;;
6259;SDS011;3163;51.516;4.000;2023-09-07T06:08:03;7.53;;;5.50;;
6259;SDS011;3163;51.516;4.000;2023-09-07T06:10:29;6.88;;;4.55;;
6259;SDS011;3163;51.516;4.000;2023-09-07T06:12:56;10.32;;;5.63;;
6259;SDS011;3163;51.516;4.000;2023-09-07T06:15:22;8.68;;;4.65;;
6259;SDS011;3163;51.516;4.000;2023-09-07T06:17:47;9.63;;;4.97;;
6259;SDS011;3163;51.516;4.000;2023-09-07T06:20:13;6.47;;;5.17;;
6259;SDS011;3163;51.516;4.000;2023-09-07T06:22:39;6.22;;;4.63;;
6259;SDS011;3163;51.516;4.000;2023-09-07T06:25:05;6.25;;;5.25;;
6259;SDS011;3163;51.516;4.000;2023-09-07T06:27:30;8.95;;;5.47;;
6259;SDS011;3163;51.516;4.000;2023-09-07T06:29:56;6.65;;;3.88;;
6259;SDS011;3163;51.516;4.000;2023-09-07T06:32:22;7.20;;;4.97;;
6259;SDS011;3163;51.516;4.000;2023-09-07T06:34:48;3.90;;;3.50;;
6259;SDS011;3163;51.516;4.000;2023-09-07T06:37:14;5.38;;;4.85;;
6259;SDS011;3163;51.516;4.000;2023-09-07T06:39:39;6.60;;;4.78;;
6259;SDS011;3163;51.516;4.000;2023-09-07T06:42:08;5.88;;;4.72;;
6259;SDS011;3163;51.516;4.000;2023-09-07T06:44:35;12.15;;;8.13;;
6259;SDS011;3163;51.516;4.000;2023-09-07T06:47:01;7.35;;;6.07;;
6259;SDS011;3163;51.516;4.000;2023-09-07T06:49:27;5.95;;;5.28;;
6259;SDS011;3163;51.516;4.000;2023-09-07T06:51:54;5.25;;;4.32;;
6259;SDS011;3163;51.516;4.000;2023-09-07T06:54:21;6.35;;;5.50;;
6259;SDS011;3163;51.516;4.000;2023-09-07T06:56:46;7.05;;;5.60;;
6259;SDS011;3163;51.516;4.000;2023-09-07T06:59:12;5.43;;;4.95;;
6259;SDS011;3163;51.516;4.000;2023-09-07T07:01:39;6.63;;;5.80;;
6259;SDS011;3163;51.516;4.000;2023-09-07T07:04:04;5.72;;;5.22;;
6259;SDS011;3163;51.516;4.000;2023-09-07T07:06:30;6.90;;;3.53;;
6259;SDS011;3163;51.516;4.000;2023-09-07T07:08:55;13.23;;;7.30;;
6259;SDS011;3163;51.516;4.000;2023-09-07T07:11:21;5.72;;;4.65;;
6259;SDS011;3163;51.516;4.000;2023-09-07T07:13:47;4.93;;;4.50;;
6259;SDS011;3163;51.516;4.000;2023-09-07T07:16:12;5.25;;;4.15;;
6259;SDS011;3163;51.516;4.000;2023-09-07T07:18:38;9.77;;;8.70;;
6259;SDS011;3163;51.516;4.000;2023-09-07T07:21:04;8.15;;;6.82;;
6259;SDS011;3163;51.516;4.000;2023-09-07T07:23:30;6.30;;;4.97;;
6259;SDS011;3163;51.516;4.000;2023-09-07T07:25:56;6.80;;;5.30;;
6259;SDS011;3163;51.516;4.000;2023-09-07T07:28:22;5.00;;;4.25;;
6259;SDS011;3163;51.516;4.000;2023-09-07T07:30:48;4.53;;;3.60;;
6259;SDS011;3163;51.516;4.000;2023-09-07T07:33:13;4.50;;;4.05;;
6259;SDS011;3163;51.516;4.000;2023-09-07T07:35:39;7.07;;;5.45;;
6259;SDS011;3163;51.516;4.000;2023-09-07T07:38:04;3.97;;;3.22;;
6259;SDS011;3163;51.516;4.000;2023-09-07T07:40:32;5.38;;;4.35;;
6259;SDS011;3163;51.516;4.000;2023-09-07T07:42:58;6.40;;;5.43;;
6259;SDS011;3163;51.516;4.000;2023-09-07T07:45:24;5.35;;;4.28;;
6259;SDS011;3163;51.516;4.000;2023-09-07T07:47:50;3.95;;;3.63;;
6259;SDS011;3163;51.516;4.000;2023-09-07T07:50:18;8.32;;;7.43;;
6259;SDS011;3163;51.516;4.000;2023-09-07T07:52:44;3.35;;;3.03;;
6259;SDS011;3163;51.516;4.000;2023-09-07T07:55:10;6.40;;;5.43;;
6259;SDS011;3163;51.516;4.000;2023-09-07T07:57:36;3.40;;;3.10;;
6259;SDS011;3163;51.516;4.000;2023-09-07T08:00:02;8.98;;;6.78;;
6259;SDS011;3163;51.516;4.000;2023-09-07T08:02:29;6.10;;;5.50;;
6259;SDS011;3163;51.516;4.000;2023-09-07T08:04:55;4.78;;;4.30;;
6259;SDS011;3163;51.516;4.000;2023-09-07T08:07:22;6.38;;;4.38;;
6259;SDS011;3163;51.516;4.000;2023-09-07T08:09:48;3.80;;;3.47;;
6259;SDS011;3163;51.516;4.000;2023-09-07T08:12:13;5.45;;;4.95;;
6259;SDS011;3163;51.516;4.000;2023-09-07T08:14:39;8.50;;;6.68;;
6259;SDS011;3163;51.516;4.000;2023-09-07T08:17:04;4.90;;;3.58;;
6259;SDS011;3163;51.516;4.000;2023-09-07T08:19:30;5.03;;;4.00;;
6259;SDS011;3163;51.516;4.000;2023-09-07T08:21:57;3.53;;;3.22;;
6259;SDS011;3163;51.516;4.000;2023-09-07T08:24:28;5.60;;;5.05;;
6259;SDS011;3163;51.516;4.000;2023-09-07T08:26:54;5.75;;;3.75;;
6259;SDS011;3163;51.516;4.000;2023-09-07T08:29:22;4.18;;;3.80;;
6259;SDS011;3163;51.516;4.000;2023-09-07T08:31:54;3.20;;;2.90;;
6259;SDS011;3163;51.516;4.000;2023-09-07T08:34:20;4.05;;;3.50;;
6259;SDS011;3163;51.516;4.000;2023-09-07T08:36:47;3.30;;;3.03;;
6259;SDS011;3163;51.516;4.000;2023-09-07T08:39:15;3.47;;;3.17;;
6259;SDS011;3163;51.516;4.000;2023-09-07T08:41:42;3.70;;;3.33;;
6259;SDS011;3163;51.516;4.000;2023-09-07T08:44:15;4.40;;;3.83;;
6259;SDS011;3163;51.516;4.000;2023-09-07T08:46:42;8.90;;;6.18;;
6259;SDS011;3163;51.516;4.000;2023-09-07T08:49:09;3.53;;;3.22;;
6259;SDS011;3163;51.516;4.000;2023-09-07T08:51:36;5.13;;;4.35;;
6259;SDS011;3163;51.516;4.000;2023-09-07T08:54:02;2.83;;;2.63;;
6259;SDS011;3163;51.516;4.000;2023-09-07T08:56:29;4.88;;;4.40;;
6259;SDS011;3163;51.516;4.000;2023-09-07T08:58:54;5.90;;;4.97;;
6259;SDS011;3163;51.516;4.000;2023-09-07T09:01:20;10.05;;;6.53;;
6259;SDS011;3163;51.516;4.000;2023-09-07T09:03:46;3.92;;;3.45;;
6259;SDS011;3163;51.516;4.000;2023-09-07T09:06:14;4.15;;;3.65;;
6259;SDS011;3163;51.516;4.000;2023-09-07T09:11:17;6.45;;;4.40;;
6259;SDS011;3163;51.516;4.000;2023-09-07T09:13:43;11.70;;;6.28;;
6259;SDS011;3163;51.516;4.000;2023-09-07T09:16:10;6.85;;;4.65;;
6259;SDS011;3163;51.516;4.000;2023-09-07T09:18:37;7.30;;;4.55;;
6259;SDS011;3163;51.516;4.000;2023-09-07T09:21:04;4.38;;;3.25;;
6259;SDS011;3163;51.516;4.000;2023-09-07T09:23:31;3.55;;;3.25;;
6259;SDS011;3163;51.516;4.000;2023-09-07T09:25:59;3.35;;;3.05;;
6259;SDS011;3163;51.516;4.000;2023-09-07T09:28:26;4.50;;;4.10;;
6259;SDS011;3163;51.516;4.000;2023-09-07T09:30:52;3.63;;;3.28;;
6259;SDS011;3163;51.516;4.000;2023-09-07T09:33:21;5.47;;;4.38;;
6259;SDS011;3163;51.516;4.000;2023-09-07T09:35:47;3.53;;;3.22;;
6259;SDS011;3163;51.516;4.000;2023-09-07T09:38:13;6.60;;;4.85;;
6259;SDS011;3163;51.516;4.000;2023-09-07T09:40:39;4.28;;;3.88;;
6259;SDS011;3163;51.516;4.000;2023-09-07T09:43:05;3.08;;;2.80;;
6259;SDS011;3163;51.516;4.000;2023-09-07T09:45:31;2.78;;;2.58;;
6259;SDS011;3163;51.516;4.000;2023-09-07T09:47:58;3.60;;;3.30;;
6259;SDS011;3163;51.516;4.000;2023-09-07T09:50:27;7.63;;;5.32;;
6259;SDS011;3163;51.516;4.000;2023-09-07T09:52:55;6.28;;;3.55;;
6259;SDS011;3163;51.516;4.000;2023-09-07T09:55:22;4.68;;;4.05;;
6259;SDS011;3163;51.516;4.000;2023-09-07T09:57:49;3.53;;;3.22;;
6259;SDS011;3163;51.516;4.000;2023-09-07T10:00:15;8.30;;;6.13;;
6259;SDS011;3163;51.516;4.000;2023-09-07T10:02:42;3.10;;;2.80;;
6259;SDS011;3163;51.516;4.000;2023-09-07T10:05:13;6.43;;;3.83;;
6259;SDS011;3163;51.516;4.000;2023-09-07T10:07:41;2.88;;;2.63;;
6259;SDS011;3163;51.516;4.000;2023-09-07T10:10:13;4.65;;;3.45;;
6259;SDS011;3163;51.516;4.000;2023-09-07T10:12:43;4.20;;;3.83;;
6259;SDS011;3163;51.516;4.000;2023-09-07T10:15:25;3.85;;;3.13;;
6259;SDS011;3163;51.516;4.000;2023-09-07T10:20:59;5.00;;;3.65;;
6259;SDS011;3163;51.516;4.000;2023-09-07T10:23:40;4.70;;;3.95;;
6259;SDS011;3163;51.516;4.000;2023-09-07T10:26:25;2.88;;;2.67;;
6259;SDS011;3163;51.516;4.000;2023-09-07T10:29:00;2.90;;;2.70;;
6259;SDS011;3163;51.516;4.000;2023-09-07T10:31:28;2.88;;;2.67;;
6259;SDS011;3163;51.516;4.000;2023-09-07T10:34:07;4.97;;;3.20;;
6259;SDS011;3163;51.516;4.000;2023-09-07T10:36:37;3.58;;;2.60;;
6259;SDS011;3163;51.516;4.000;2023-09-07T10:39:03;3.88;;;2.90;;
6259;SDS011;3163;51.516;4.000;2023-09-07T10:41:39;4.22;;;2.38;;
6259;SDS011;3163;51.516;4.000;2023-09-07T10:44:08;2.90;;;2.70;;
6259;SDS011;3163;51.516;4.000;2023-09-07T10:46:38;3.55;;;3.25;;
6259;SDS011;3163;51.516;4.000;2023-09-07T10:49:06;2.30;;;2.20;;
6259;SDS011;3163;51.516;4.000;2023-09-07T10:51:45;5.53;;;3.45;;
6259;SDS011;3163;51.516;4.000;2023-09-07T10:54:22;3.95;;;2.90;;
6259;SDS011;3163;51.516;4.000;2023-09-07T10:56:49;4.60;;;3.03;;
6259;SDS011;3163;51.516;4.000;2023-09-07T10:59:16;5.28;;;3.20;;
6259;SDS011;3163;51.516;4.000;2023-09-07T11:01:45;6.65;;;3.25;;
6259;SDS011;3163;51.516;4.000;2023-09-07T11:04:12;4.32;;;3.50;;
6259;SDS011;3163;51.516;4.000;2023-09-07T11:06:38;2.85;;;2.65;;
6259;SDS011;3163;51.516;4.000;2023-09-07T11:09:05;2.80;;;2.60;;
6259;SDS011;3163;51.516;4.000;2023-09-07T11:11:35;2.45;;;2.15;;
6259;SDS011;3163;51.516;4.000;2023-09-07T11:14:04;3.13;;;2.65;;
6259;SDS011;3163;51.516;4.000;2023-09-07T11:16:30;3.28;;;2.78;;
6259;SDS011;3163;51.516;4.000;2023-09-07T11:19:01;4.18;;;3.03;;
6259;SDS011;3163;51.516;4.000;2023-09-07T11:21:29;2.95;;;2.75;;
6259;SDS011;3163;51.516;4.000;2023-09-07T11:23:56;2.10;;;2.00;;
6259;SDS011;3163;51.516;4.000;2023-09-07T11:26:22;4.57;;;2.55;;
6259;SDS011;3163;51.516;4.000;2023-09-07T11:28:48;2.88;;;2.67;;
6259;SDS011;3163;51.516;4.000;2023-09-07T11:31:17;2.75;;;2.33;;
6259;SDS011;3163;51.516;4.000;2023-09-07T11:33:44;2.67;;;2.47;;
6259;SDS011;3163;51.516;4.000;2023-09-07T11:36:11;3.15;;;2.60;;
6259;SDS011;3163;51.516;4.000;2023-09-07T11:38:37;4.85;;;2.72;;
6259;SDS011;3163;51.516;4.000;2023-09-07T11:41:03;2.90;;;2.58;;
6259;SDS011;3163;51.516;4.000;2023-09-07T11:43:29;2.70;;;2.50;;
6259;SDS011;3163;51.516;4.000;2023-09-07T11:45:54;2.90;;;2.30;;
6259;SDS011;3163;51.516;4.000;2023-09-07T11:48:20;2.22;;;2.03;;
6259;SDS011;3163;51.516;4.000;2023-09-07T11:50:46;2.83;;;2.30;;
6259;SDS011;3163;51.516;4.000;2023-09-07T11:53:11;2.75;;;2.55;;
6259;SDS011;3163;51.516;4.000;2023-09-07T11:55:37;2.35;;;2.25;;
6259;SDS011;3163;51.516;4.000;2023-09-07T11:58:04;2.15;;;1.98;;
6259;SDS011;3163;51.516;4.000;2023-09-07T12:00:30;2.10;;;2.00;;
6259;SDS011;3163;51.516;4.000;2023-09-07T12:02:56;3.78;;;3.40;;
6259;SDS011;3163;51.516;4.000;2023-09-07T12:05:22;2.15;;;1.98;;
6259;SDS011;3163;51.516;4.000;2023-09-07T12:07:48;2.00;;;1.85;;
6259;SDS011;3163;51.516;4.000;2023-09-07T12:10:13;2.17;;;2.08;;
6259;SDS011;3163;51.516;4.000;2023-09-07T12:12:39;3.33;;;2.33;;
6259;SDS011;3163;51.516;4.000;2023-09-07T12:15:06;3.15;;;2.28;;
6259;SDS011;3163;51.516;4.000;2023-09-07T12:17:33;2.90;;;2.30;;
6259;SDS011;3163;51.516;4.000;2023-09-07T12:19:59;2.03;;;1.83;;
6259;SDS011;3163;51.516;4.000;2023-09-07T12:22:26;4.47;;;2.22;;
6259;SDS011;3163;51.516;4.000;2023-09-07T12:24:51;2.72;;;2.22;;
6259;SDS011;3163;51.516;4.000;2023-09-07T12:27:18;3.75;;;2.40;;
6259;SDS011;3163;51.516;4.000;2023-09-07T12:29:44;2.38;;;2.22;;
6259;SDS011;3163;51.516;4.000;2023-09-07T12:32:09;2.13;;;1.92;;
6259;SDS011;3163;51.516;4.000;2023-09-07T12:34:36;3.42;;;2.38;;
6259;SDS011;3163;51.516;4.000;2023-09-07T12:37:01;2.80;;;1.88;;
6259;SDS011;3163;51.516;4.000;2023-09-07T12:39:31;2.35;;;1.83;;
6259;SDS011;3163;51.516;4.000;2023-09-07T12:41:59;2.47;;;2.05;;
6259;SDS011;3163;51.516;4.000;2023-09-07T12:44:26;1.60;;;1.50;;
6259;SDS011;3163;51.516;4.000;2023-09-07T12:46:52;2.25;;;1.88;;
6259;SDS011;3163;51.516;4.000;2023-09-07T12:49:17;2.38;;;2.17;;
6259;SDS011;3163;51.516;4.000;2023-09-07T12:51:44;2.30;;;2.08;;
6259;SDS011;3163;51.516;4.000;2023-09-07T12:54:11;2.97;;;2.10;;
6259;SDS011;3163;51.516;4.000;2023-09-07T12:56:37;1.90;;;1.80;;
6259;SDS011;3163;51.516;4.000;2023-09-07T12:59:02;3.95;;;1.80;;
6259;SDS011;3163;51.516;4.000;2023-09-07T13:01:28;1.92;;;1.70;;
6259;SDS011;3163;51.516;4.000;2023-09-07T13:03:55;2.05;;;1.95;;
6259;SDS011;3163;51.516;4.000;2023-09-07T13:06:21;1.98;;;1.75;;
6259;SDS011;3163;51.516;4.000;2023-09-07T13:08:47;1.88;;;1.77;;
6259;SDS011;3163;51.516;4.000;2023-09-07T13:11:12;1.95;;;1.80;;
6259;SDS011;3163;51.516;4.000;2023-09-07T13:13:38;2.38;;;2.17;;
6259;SDS011;3163;51.516;4.000;2023-09-07T13:16:04;1.60;;;1.50;;
6259;SDS011;3163;51.516;4.000;2023-09-07T13:18:30;2.00;;;1.90;;
6259;SDS011;3163;51.516;4.000;2023-09-07T13:20:56;2.22;;;2.03;;
6259;SDS011;3163;51.516;4.000;2023-09-07T13:23:26;2.00;;;1.80;;
6259;SDS011;3163;51.516;4.000;2023-09-07T13:25:52;2.10;;;1.98;;
6259;SDS011;3163;51.516;4.000;2023-09-07T13:28:19;2.28;;;2.05;;
6259;SDS011;3163;51.516;4.000;2023-09-07T13:30:44;1.83;;;1.73;;
6259;SDS011;3163;51.516;4.000;2023-09-07T13:33:10;2.10;;;2.00;;
6259;SDS011;3163;51.516;4.000;2023-09-07T13:35:36;1.80;;;1.70;;
6259;SDS011;3163;51.516;4.000;2023-09-07T13:38:02;1.77;;;1.67;;
6259;SDS011;3163;51.516;4.000;2023-09-07T13:40:27;2.13;;;2.03;;
6259;SDS011;3163;51.516;4.000;2023-09-07T13:42:54;2.88;;;2.30;;
6259;SDS011;3163;51.516;4.000;2023-09-07T13:45:21;1.80;;;1.70;;
6259;SDS011;3163;51.516;4.000;2023-09-07T13:47:47;2.38;;;2.22;;
6259;SDS011;3163;51.516;4.000;2023-09-07T13:50:12;2.13;;;2.00;;
6259;SDS011;3163;51.516;4.000;2023-09-07T13:52:38;2.10;;;1.88;;
6259;SDS011;3163;51.516;4.000;2023-09-07T13:55:04;2.28;;;1.77;;
6259;SDS011;3163;51.516;4.000;2023-09-07T13:57:30;1.73;;;1.63;;
6259;SDS011;3163;51.516;4.000;2023-09-07T13:59:57;2.53;;;2.33;;
6259;SDS011;3163;51.516;4.000;2023-09-07T14:02:23;1.70;;;1.60;;
6259;SDS011;3163;51.516;4.000;2023-09-07T14:04:48;2.13;;;2.00;;
6259;SDS011;3163;51.516;4.000;2023-09-07T14:07:14;1.60;;;1.50;;
6259;SDS011;3163;51.516;4.000;2023-09-07T14:09:40;4.00;;;2.13;;
6259;SDS011;3163;51.516;4.000;2023-09-07T14:12:06;2.60;;;2.28;;
6259;SDS011;3163;51.516;4.000;2023-09-07T14:14:32;2.08;;;1.98;;
6259;SDS011;3163;51.516;4.000;2023-09-07T14:16:57;2.55;;;2.33;;
6259;SDS011;3163;51.516;4.000;2023-09-07T14:19:25;2.20;;;2.00;;
6259;SDS011;3163;51.516;4.000;2023-09-07T14:21:55;1.90;;;1.80;;
6259;SDS011;3163;51.516;4.000;2023-09-07T14:24:24;2.13;;;2.03;;
6259;SDS011;3163;51.516;4.000;2023-09-07T14:26:50;1.63;;;1.52;;
6259;SDS011;3163;51.516;4.000;2023-09-07T14:29:16;1.70;;;1.60;;
6259;SDS011;3163;51.516;4.000;2023-09-07T14:31:41;2.50;;;1.63;;
6259;SDS011;3163;51.516;4.000;2023-09-07T14:34:08;2.92;;;1.77;;
6259;SDS011;3163;51.516;4.000;2023-09-07T14:36:35;2.17;;;2.03;;
6259;SDS011;3163;51.516;4.000;2023-09-07T14:39:01;3.25;;;2.05;;
6259;SDS011;3163;51.516;4.000;2023-09-07T14:41:28;2.70;;;2.10;;
6259;SDS011;3163;51.516;4.000;2023-09-07T14:43:55;4.15;;;2.38;;
6259;SDS011;3163;51.516;4.000;2023-09-07T14:46:21;2.20;;;2.03;;
6259;SDS011;3163;51.516;4.000;2023-09-07T14:48:48;2.00;;;1.90;;
6259;SDS011;3163;51.516;4.000;2023-09-07T14:51:14;2.07;;;1.90;;
6259;SDS011;3163;51.516;4.000;2023-09-07T14:53:40;2.35;;;2.20;;
6259;SDS011;3163;51.516;4.000;2023-09-07T14:56:05;3.47;;;2.25;;
6259;SDS011;3163;51.516;4.000;2023-09-07T14:58:31;1.90;;;1.80;;
6259;SDS011;3163;51.516;4.000;2023-09-07T15:00:57;2.13;;;1.95;;
6259;SDS011;3163;51.516;4.000;2023-09-07T15:03:25;2.75;;;2.55;;
6259;SDS011;3163;51.516;4.000;2023-09-07T15:05:51;2.47;;;2.05;;
6259;SDS011;3163;51.516;4.000;2023-09-07T15:08:16;2.13;;;1.90;;
6259;SDS011;3163;51.516;4.000;2023-09-07T15:10:42;2.38;;;1.83;;
6259;SDS011;3163;51.516;4.000;2023-09-07T15:13:08;1.90;;;1.80;;
6259;SDS011;3163;51.516;4.000;2023-09-07T15:15:35;2.25;;;1.60;;
6259;SDS011;3163;51.516;4.000;2023-09-07T15:18:05;1.95;;;1.85;;